sensor_id;sensor_type;location;lat;lon;timestamp;P1;durP1;ratioP1;P2;durP2;ratioP2
60665;SDS011;59128;44.642;21.188;2023-05-10T00:01:23;9.63;;;7.53;;
60665;SDS011;59128;44.642;21.188;2023-05-10T00:03:49;6.15;;;5.60;;
60665;SDS011;59128;44.642;21.188;2023-05-10T00:06:16;7.63;;;6.50;;
60665;SDS011;59128;44.642;21.188;2023-05-10T00:08:43;7.03;;;6.30;;
60665;SDS011;59128;44.642;21.188;2023-05-10T00:11:09;6.63;;;6.00;;
60665;SDS011;59128;44.642;21.188;2023-05-10T00:13:35;7.03;;;6.35;;
60665;SDS011;59128;44.642;21.188;2023-05-10T00:16:01;6.72;;;6.13;;
60665;SDS011;59128;44.642;21.188;2023-05-10T00:18:27;6.10;;;5.50;;
60665;SDS011;59128;44.642;21.188;2023-05-10T00:20:53;6.60;;;5.57;;
60665;SDS011;59128;44.642;21.188;2023-05-10T00:23:20;6.30;;;5.70;;
60665;SDS011;59128;44.642;21.188;2023-05-10T00:25:46;5.63;;;5.13;;
60665;SDS011;59128;44.642;21.188;2023-05-10T00:28:12;6.25;;;5.65;;
60665;SDS011;59128;44.642;21.188;2023-05-10T00:30:38;5.68;;;5.18;;
60665;SDS011;59128;44.642;21.188;2023-05-10T00:33:04;6.03;;;5.50;;
60665;SDS011;59128;44.642;21.188;2023-05-10T00:35:30;5.90;;;5.30;;
60665;SDS011;59128;44.642;21.188;2023-05-10T00:37:56;6.50;;;5.45;;
60665;SDS011;59128;44.642;21.188;2023-05-10T00:40:22;5.65;;;5.15;;
60665;SDS011;59128;44.642;21.188;2023-05-10T00:42:48;7.40;;;6.60;;
60665;SDS011;59128;44.642;21.188;2023-05-10T00:45:14;7.07;;;6.43;;
60665;SDS011;59128;44.642;21.188;2023-05-10T00:47:40;7.55;;;6.80;;
60665;SDS011;59128;44.642;21.188;2023-05-10T00:50:06;7.25;;;5.82;;
60665;SDS011;59128;44.642;21.188;2023-05-10T00:52:33;6.63;;;5.40;;
60665;SDS011;59128;44.642;21.188;2023-05-10T00:54:59;6.45;;;5.85;;
60665;SDS011;59128;44.642;21.188;2023-05-10T00:57:26;7.10;;;5.53;;
60665;SDS011;59128;44.642;21.188;2023-05-10T00:59:52;6.13;;;5.53;;
60665;SDS011;59128;44.642;21.188;2023-05-10T01:02:18;9.05;;;7.82;;
60665;SDS011;59128;44.642;21.188;2023-05-10T01:04:44;11.27;;;9.50;;
60665;SDS011;59128;44.642;21.188;2023-05-10T01:07:10;7.57;;;6.35;;
60665;SDS011;59128;44.642;21.188;2023-05-10T01:09:36;7.95;;;6.90;;
60665;SDS011;59128;44.642;21.188;2023-05-10T01:12:02;7.50;;;6.57;;
60665;SDS011;59128;44.642;21.188;2023-05-10T01:14:31;11.05;;;8.88;;
60665;SDS011;59128;44.642;21.188;2023-05-10T01:16:57;7.97;;;7.13;;
60665;SDS011;59128;44.642;21.188;2023-05-10T01:19:27;8.10;;;7.30;;
60665;SDS011;59128;44.642;21.188;2023-05-10T01:22:01;8.75;;;7.55;;
60665;SDS011;59128;44.642;21.188;2023-05-10T01:37:39;6.93;;;6.22;;
60665;SDS011;59128;44.642;21.188;2023-05-10T01:40:23;6.90;;;6.10;;
60665;SDS011;59128;44.642;21.188;2023-05-10T01:42:53;6.95;;;6.28;;
60665;SDS011;59128;44.642;21.188;2023-05-10T01:48:03;6.13;;;5.53;;
60665;SDS011;59128;44.642;21.188;2023-05-10T01:50:31;7.97;;;5.53;;
60665;SDS011;59128;44.642;21.188;2023-05-10T01:52:59;6.18;;;5.60;;
60665;SDS011;59128;44.642;21.188;2023-05-10T01:55:27;6.60;;;5.80;;
60665;SDS011;59128;44.642;21.188;2023-05-10T01:58:00;6.18;;;5.68;;
60665;SDS011;59128;44.642;21.188;2023-05-10T02:00:27;5.90;;;5.40;;
60665;SDS011;59128;44.642;21.188;2023-05-10T02:02:54;5.95;;;5.35;;
60665;SDS011;59128;44.642;21.188;2023-05-10T02:05:21;6.35;;;5.75;;
60665;SDS011;59128;44.642;21.188;2023-05-10T02:07:47;7.18;;;6.47;;
60665;SDS011;59128;44.642;21.188;2023-05-10T02:10:14;8.13;;;6.07;;
60665;SDS011;59128;44.642;21.188;2023-05-10T02:12:41;7.20;;;6.53;;
60665;SDS011;59128;44.642;21.188;2023-05-10T02:15:08;6.45;;;5.82;;
60665;SDS011;59128;44.642;21.188;2023-05-10T02:17:37;6.80;;;6.13;;
60665;SDS011;59128;44.642;21.188;2023-05-10T02:20:03;7.18;;;5.95;;
60665;SDS011;59128;44.642;21.188;2023-05-10T02:22:31;7.28;;;6.57;;
60665;SDS011;59128;44.642;21.188;2023-05-10T02:24:57;7.00;;;6.40;;
60665;SDS011;59128;44.642;21.188;2023-05-10T02:27:24;8.15;;;7.18;;
60665;SDS011;59128;44.642;21.188;2023-05-10T02:29:50;8.45;;;6.50;;
60665;SDS011;59128;44.642;21.188;2023-05-10T02:32:17;7.93;;;7.10;;
60665;SDS011;59128;44.642;21.188;2023-05-10T02:34:43;7.22;;;6.53;;
60665;SDS011;59128;44.642;21.188;2023-05-10T02:37:11;7.00;;;6.35;;
60665;SDS011;59128;44.642;21.188;2023-05-10T02:39:37;7.05;;;6.35;;
60665;SDS011;59128;44.642;21.188;2023-05-10T02:42:08;8.45;;;7.60;;
60665;SDS011;59128;44.642;21.188;2023-05-10T02:44:35;12.57;;;9.93;;
60665;SDS011;59128;44.642;21.188;2023-05-10T02:47:02;9.95;;;7.20;;
60665;SDS011;59128;44.642;21.188;2023-05-10T02:49:29;8.63;;;7.68;;
60665;SDS011;59128;44.642;21.188;2023-05-10T02:51:56;8.25;;;7.50;;
60665;SDS011;59128;44.642;21.188;2023-05-10T02:54:24;9.20;;;8.40;;
60665;SDS011;59128;44.642;21.188;2023-05-10T02:56:58;7.78;;;6.90;;
60665;SDS011;59128;44.642;21.188;2023-05-10T02:59:26;9.60;;;8.70;;
60665;SDS011;59128;44.642;21.188;2023-05-10T03:01:52;7.85;;;7.05;;
60665;SDS011;59128;44.642;21.188;2023-05-10T03:04:18;8.70;;;7.22;;
60665;SDS011;59128;44.642;21.188;2023-05-10T03:06:44;7.72;;;6.93;;
60665;SDS011;59128;44.642;21.188;2023-05-10T03:09:10;7.25;;;6.55;;
60665;SDS011;59128;44.642;21.188;2023-05-10T03:11:47;7.72;;;7.10;;
60665;SDS011;59128;44.642;21.188;2023-05-10T03:17:06;7.20;;;6.60;;
60665;SDS011;59128;44.642;21.188;2023-05-10T03:19:55;9.20;;;7.45;;
60665;SDS011;59128;44.642;21.188;2023-05-10T03:22:27;8.00;;;7.20;;
60665;SDS011;59128;44.642;21.188;2023-05-10T03:24:55;8.18;;;7.35;;
60665;SDS011;59128;44.642;21.188;2023-05-10T03:27:25;8.00;;;7.22;;
60665;SDS011;59128;44.642;21.188;2023-05-10T03:29:52;7.97;;;7.18;;
60665;SDS011;59128;44.642;21.188;2023-05-10T03:32:18;8.10;;;7.30;;
60665;SDS011;59128;44.642;21.188;2023-05-10T03:34:44;7.93;;;7.13;;
60665;SDS011;59128;44.642;21.188;2023-05-10T03:37:10;7.85;;;7.05;;
60665;SDS011;59128;44.642;21.188;2023-05-10T03:39:36;7.80;;;7.00;;
60665;SDS011;59128;44.642;21.188;2023-05-10T03:42:03;7.67;;;6.97;;
60665;SDS011;59128;44.642;21.188;2023-05-10T03:44:29;8.80;;;6.60;;
60665;SDS011;59128;44.642;21.188;2023-05-10T03:46:55;7.05;;;6.38;;
60665;SDS011;59128;44.642;21.188;2023-05-10T03:49:22;7.63;;;6.93;;
60665;SDS011;59128;44.642;21.188;2023-05-10T03:51:48;8.27;;;7.47;;
60665;SDS011;59128;44.642;21.188;2023-05-10T03:54:14;7.32;;;6.63;;
60665;SDS011;59128;44.642;21.188;2023-05-10T03:56:40;7.22;;;6.53;;
60665;SDS011;59128;44.642;21.188;2023-05-10T03:59:06;7.47;;;6.78;;
60665;SDS011;59128;44.642;21.188;2023-05-10T04:01:34;6.80;;;6.20;;
60665;SDS011;59128;44.642;21.188;2023-05-10T04:04:00;8.65;;;6.50;;
60665;SDS011;59128;44.642;21.188;2023-05-10T04:06:26;8.05;;;6.22;;
60665;SDS011;59128;44.642;21.188;2023-05-10T04:08:52;6.53;;;5.80;;
60665;SDS011;59128;44.642;21.188;2023-05-10T04:11:18;7.35;;;5.95;;
60665;SDS011;59128;44.642;21.188;2023-05-10T04:13:46;6.28;;;5.68;;
60665;SDS011;59128;44.642;21.188;2023-05-10T04:16:13;6.60;;;5.67;;
60665;SDS011;59128;44.642;21.188;2023-05-10T04:18:39;5.60;;;5.10;;
60665;SDS011;59128;44.642;21.188;2023-05-10T04:21:10;7.07;;;4.90;;
60665;SDS011;59128;44.642;21.188;2023-05-10T04:23:37;6.00;;;5.25;;
60665;SDS011;59128;44.642;21.188;2023-05-10T04:26:03;8.48;;;6.88;;
60665;SDS011;59128;44.642;21.188;2023-05-10T04:28:29;6.05;;;5.45;;
60665;SDS011;59128;44.642;21.188;2023-05-10T04:31:08;7.53;;;6.72;;
60665;SDS011;59128;44.642;21.188;2023-05-10T04:33:35;6.72;;;5.80;;
60665;SDS011;59128;44.642;21.188;2023-05-10T04:36:02;6.10;;;5.47;;
60665;SDS011;59128;44.642;21.188;2023-05-10T04:38:28;6.75;;;5.47;;
60665;SDS011;59128;44.642;21.188;2023-05-10T04:41:03;7.38;;;5.55;;
60665;SDS011;59128;44.642;21.188;2023-05-10T04:43:29;6.18;;;5.40;;
60665;SDS011;59128;44.642;21.188;2023-05-10T04:45:58;6.43;;;5.30;;
60665;SDS011;59128;44.642;21.188;2023-05-10T04:48:24;6.00;;;5.28;;
60665;SDS011;59128;44.642;21.188;2023-05-10T04:50:50;6.18;;;5.57;;
60665;SDS011;59128;44.642;21.188;2023-05-10T04:53:16;6.60;;;5.78;;
60665;SDS011;59128;44.642;21.188;2023-05-10T04:55:42;5.65;;;5.10;;
60665;SDS011;59128;44.642;21.188;2023-05-10T04:58:08;5.57;;;5.07;;
60665;SDS011;59128;44.642;21.188;2023-05-10T05:00:35;6.53;;;5.70;;
60665;SDS011;59128;44.642;21.188;2023-05-10T05:03:01;6.55;;;5.63;;
60665;SDS011;59128;44.642;21.188;2023-05-10T05:05:27;7.13;;;6.43;;
60665;SDS011;59128;44.642;21.188;2023-05-10T05:07:53;6.15;;;5.55;;
60665;SDS011;59128;44.642;21.188;2023-05-10T05:10:19;6.60;;;5.70;;
60665;SDS011;59128;44.642;21.188;2023-05-10T05:12:45;6.15;;;5.53;;
60665;SDS011;59128;44.642;21.188;2023-05-10T05:15:11;6.57;;;5.93;;
60665;SDS011;59128;44.642;21.188;2023-05-10T05:17:37;6.53;;;5.90;;
60665;SDS011;59128;44.642;21.188;2023-05-10T05:20:03;6.73;;;6.03;;
60665;SDS011;59128;44.642;21.188;2023-05-10T05:22:30;7.97;;;6.60;;
60665;SDS011;59128;44.642;21.188;2023-05-10T05:24:56;7.70;;;7.00;;
60665;SDS011;59128;44.642;21.188;2023-05-10T05:27:23;7.88;;;6.85;;
60665;SDS011;59128;44.642;21.188;2023-05-10T05:29:54;8.52;;;7.68;;
60665;SDS011;59128;44.642;21.188;2023-05-10T05:32:20;9.68;;;8.60;;
60665;SDS011;59128;44.642;21.188;2023-05-10T05:34:46;9.43;;;8.50;;
60665;SDS011;59128;44.642;21.188;2023-05-10T05:37:13;12.93;;;10.80;;
60665;SDS011;59128;44.642;21.188;2023-05-10T05:39:39;15.45;;;12.18;;
60665;SDS011;59128;44.642;21.188;2023-05-10T05:42:05;19.85;;;17.23;;
60665;SDS011;59128;44.642;21.188;2023-05-10T05:44:31;16.30;;;14.00;;
60665;SDS011;59128;44.642;21.188;2023-05-10T05:46:57;12.18;;;10.90;;
60665;SDS011;59128;44.642;21.188;2023-05-10T05:49:23;14.90;;;13.40;;
60665;SDS011;59128;44.642;21.188;2023-05-10T05:51:49;12.20;;;11.00;;
60665;SDS011;59128;44.642;21.188;2023-05-10T05:54:15;15.82;;;14.10;;
60665;SDS011;59128;44.642;21.188;2023-05-10T05:56:43;14.63;;;13.10;;
60665;SDS011;59128;44.642;21.188;2023-05-10T05:59:10;14.60;;;13.20;;
60665;SDS011;59128;44.642;21.188;2023-05-10T06:01:36;12.73;;;11.43;;
60665;SDS011;59128;44.642;21.188;2023-05-10T06:04:03;14.55;;;12.65;;
60665;SDS011;59128;44.642;21.188;2023-05-10T06:06:29;13.13;;;11.75;;
60665;SDS011;59128;44.642;21.188;2023-05-10T06:08:57;13.13;;;11.85;;
60665;SDS011;59128;44.642;21.188;2023-05-10T06:11:23;12.23;;;11.05;;
60665;SDS011;59128;44.642;21.188;2023-05-10T06:13:50;13.00;;;11.10;;
60665;SDS011;59128;44.642;21.188;2023-05-10T06:16:16;13.68;;;12.20;;
60665;SDS011;59128;44.642;21.188;2023-05-10T06:18:42;13.60;;;11.90;;
60665;SDS011;59128;44.642;21.188;2023-05-10T06:21:09;54.83;;;27.40;;
60665;SDS011;59128;44.642;21.188;2023-05-10T06:23:35;15.13;;;12.27;;
60665;SDS011;59128;44.642;21.188;2023-05-10T06:26:01;18.30;;;13.57;;
60665;SDS011;59128;44.642;21.188;2023-05-10T06:28:27;12.40;;;11.15;;
60665;SDS011;59128;44.642;21.188;2023-05-10T06:30:53;14.55;;;11.85;;
60665;SDS011;59128;44.642;21.188;2023-05-10T06:33:19;12.25;;;11.02;;
60665;SDS011;59128;44.642;21.188;2023-05-10T06:35:45;10.82;;;9.82;;
60665;SDS011;59128;44.642;21.188;2023-05-10T06:38:11;11.50;;;10.15;;
60665;SDS011;59128;44.642;21.188;2023-05-10T06:40:40;16.10;;;11.93;;
60665;SDS011;59128;44.642;21.188;2023-05-10T06:43:07;9.70;;;8.80;;
60665;SDS011;59128;44.642;21.188;2023-05-10T06:45:33;9.47;;;7.93;;
60665;SDS011;59128;44.642;21.188;2023-05-10T06:47:59;10.02;;;8.73;;
60665;SDS011;59128;44.642;21.188;2023-05-10T06:50:26;9.55;;;8.57;;
60665;SDS011;59128;44.642;21.188;2023-05-10T06:52:52;10.70;;;9.07;;
60665;SDS011;59128;44.642;21.188;2023-05-10T06:55:18;8.55;;;7.75;;
60665;SDS011;59128;44.642;21.188;2023-05-10T06:57:44;8.32;;;7.63;;
60665;SDS011;59128;44.642;21.188;2023-05-10T07:00:11;9.30;;;7.50;;
60665;SDS011;59128;44.642;21.188;2023-05-10T07:02:37;8.57;;;7.03;;
60665;SDS011;59128;44.642;21.188;2023-05-10T07:05:03;8.23;;;6.32;;
60665;SDS011;59128;44.642;21.188;2023-05-10T07:07:29;6.88;;;6.10;;
60665;SDS011;59128;44.642;21.188;2023-05-10T07:09:56;7.40;;;6.18;;
60665;SDS011;59128;44.642;21.188;2023-05-10T07:12:22;8.25;;;7.15;;
60665;SDS011;59128;44.642;21.188;2023-05-10T07:14:48;7.03;;;6.00;;
60665;SDS011;59128;44.642;21.188;2023-05-10T07:17:15;9.02;;;6.55;;
60665;SDS011;59128;44.642;21.188;2023-05-10T07:19:41;10.13;;;7.07;;
60665;SDS011;59128;44.642;21.188;2023-05-10T07:22:07;10.90;;;8.35;;
60665;SDS011;59128;44.642;21.188;2023-05-10T07:24:33;6.90;;;5.78;;
60665;SDS011;59128;44.642;21.188;2023-05-10T07:26:59;9.43;;;6.65;;
60665;SDS011;59128;44.642;21.188;2023-05-10T07:29:25;7.97;;;6.43;;
60665;SDS011;59128;44.642;21.188;2023-05-10T07:31:51;7.72;;;5.35;;
60665;SDS011;59128;44.642;21.188;2023-05-10T07:34:18;9.05;;;6.72;;
60665;SDS011;59128;44.642;21.188;2023-05-10T07:36:44;13.77;;;12.68;;
60665;SDS011;59128;44.642;21.188;2023-05-10T07:39:10;9.53;;;6.80;;
60665;SDS011;59128;44.642;21.188;2023-05-10T07:41:36;6.75;;;5.85;;
60665;SDS011;59128;44.642;21.188;2023-05-10T07:44:03;8.15;;;5.65;;
60665;SDS011;59128;44.642;21.188;2023-05-10T07:46:29;6.75;;;5.05;;
60665;SDS011;59128;44.642;21.188;2023-05-10T07:48:55;6.78;;;6.18;;
60665;SDS011;59128;44.642;21.188;2023-05-10T07:51:21;8.45;;;6.90;;
60665;SDS011;59128;44.642;21.188;2023-05-10T07:53:47;9.13;;;8.18;;
60665;SDS011;59128;44.642;21.188;2023-05-10T07:56:21;7.60;;;5.30;;
60665;SDS011;59128;44.642;21.188;2023-05-10T07:58:47;8.67;;;6.47;;
60665;SDS011;59128;44.642;21.188;2023-05-10T08:01:13;10.10;;;4.07;;
60665;SDS011;59128;44.642;21.188;2023-05-10T08:03:39;9.18;;;5.22;;
60665;SDS011;59128;44.642;21.188;2023-05-10T08:06:05;6.45;;;4.18;;
60665;SDS011;59128;44.642;21.188;2023-05-10T08:08:31;7.47;;;5.65;;
60665;SDS011;59128;44.642;21.188;2023-05-10T08:10:57;5.85;;;5.22;;
60665;SDS011;59128;44.642;21.188;2023-05-10T08:13:23;7.00;;;4.22;;
60665;SDS011;59128;44.642;21.188;2023-05-10T08:15:49;7.18;;;5.55;;
60665;SDS011;59128;44.642;21.188;2023-05-10T08:18:18;12.27;;;7.00;;
60665;SDS011;59128;44.642;21.188;2023-05-10T08:20:44;4.65;;;3.22;;
60665;SDS011;59128;44.642;21.188;2023-05-10T08:23:12;7.57;;;6.03;;
60665;SDS011;59128;44.642;21.188;2023-05-10T08:25:38;10.90;;;4.60;;
60665;SDS011;59128;44.642;21.188;2023-05-10T08:28:04;7.63;;;4.45;;
60665;SDS011;59128;44.642;21.188;2023-05-10T08:30:30;9.90;;;6.72;;
60665;SDS011;59128;44.642;21.188;2023-05-10T08:32:56;12.65;;;8.77;;
60665;SDS011;59128;44.642;21.188;2023-05-10T08:35:22;12.77;;;7.70;;
60665;SDS011;59128;44.642;21.188;2023-05-10T08:37:50;9.32;;;5.65;;
60665;SDS011;59128;44.642;21.188;2023-05-10T08:40:16;12.30;;;8.25;;
60665;SDS011;59128;44.642;21.188;2023-05-10T08:42:48;7.93;;;6.03;;
60665;SDS011;59128;44.642;21.188;2023-05-10T08:45:17;9.82;;;5.50;;
60665;SDS011;59128;44.642;21.188;2023-05-10T08:47:44;5.47;;;4.55;;
60665;SDS011;59128;44.642;21.188;2023-05-10T08:50:10;7.65;;;4.63;;
60665;SDS011;59128;44.642;21.188;2023-05-10T08:52:37;4.80;;;3.88;;
60665;SDS011;59128;44.642;21.188;2023-05-10T08:55:05;8.63;;;4.22;;
60665;SDS011;59128;44.642;21.188;2023-05-10T08:57:31;7.35;;;4.25;;
60665;SDS011;59128;44.642;21.188;2023-05-10T08:59:57;4.38;;;3.50;;
60665;SDS011;59128;44.642;21.188;2023-05-10T09:02:23;7.35;;;3.97;;
60665;SDS011;59128;44.642;21.188;2023-05-10T09:04:50;6.28;;;3.97;;
60665;SDS011;59128;44.642;21.188;2023-05-10T09:07:16;4.55;;;3.33;;
60665;SDS011;59128;44.642;21.188;2023-05-10T09:09:42;8.13;;;4.22;;
60665;SDS011;59128;44.642;21.188;2023-05-10T09:12:09;5.28;;;3.42;;
60665;SDS011;59128;44.642;21.188;2023-05-10T09:14:36;6.38;;;3.45;;
60665;SDS011;59128;44.642;21.188;2023-05-10T09:17:03;6.18;;;4.00;;
60665;SDS011;59128;44.642;21.188;2023-05-10T09:19:30;7.22;;;3.28;;
60665;SDS011;59128;44.642;21.188;2023-05-10T09:21:56;5.60;;;4.97;;
60665;SDS011;59128;44.642;21.188;2023-05-10T09:24:25;4.35;;;3.50;;
60665;SDS011;59128;44.642;21.188;2023-05-10T09:26:52;9.82;;;4.13;;
60665;SDS011;59128;44.642;21.188;2023-05-10T09:29:18;4.82;;;3.55;;
60665;SDS011;59128;44.642;21.188;2023-05-10T09:31:47;4.32;;;3.13;;
60665;SDS011;59128;44.642;21.188;2023-05-10T09:34:17;3.50;;;3.20;;
60665;SDS011;59128;44.642;21.188;2023-05-10T09:36:59;7.80;;;3.67;;
60665;SDS011;59128;44.642;21.188;2023-05-10T09:39:37;6.57;;;3.70;;
60665;SDS011;59128;44.642;21.188;2023-05-10T09:42:07;6.28;;;3.90;;
60665;SDS011;59128;44.642;21.188;2023-05-10T09:44:34;4.75;;;3.60;;
60665;SDS011;59128;44.642;21.188;2023-05-10T09:47:00;4.80;;;2.92;;
60665;SDS011;59128;44.642;21.188;2023-05-10T09:49:26;5.30;;;2.95;;
60665;SDS011;59128;44.642;21.188;2023-05-10T09:52:02;3.78;;;2.30;;
60665;SDS011;59128;44.642;21.188;2023-05-10T09:54:29;5.97;;;2.75;;
60665;SDS011;59128;44.642;21.188;2023-05-10T09:56:55;4.20;;;3.35;;
60665;SDS011;59128;44.642;21.188;2023-05-10T09:59:21;4.15;;;2.70;;
60665;SDS011;59128;44.642;21.188;2023-05-10T10:01:50;4.57;;;3.10;;
60665;SDS011;59128;44.642;21.188;2023-05-10T10:04:17;8.90;;;3.25;;
60665;SDS011;59128;44.642;21.188;2023-05-10T10:06:43;3.17;;;2.70;;
60665;SDS011;59128;44.642;21.188;2023-05-10T10:09:09;4.97;;;3.20;;
60665;SDS011;59128;44.642;21.188;2023-05-10T10:11:36;8.77;;;2.80;;
60665;SDS011;59128;44.642;21.188;2023-05-10T10:14:02;4.97;;;3.20;;
60665;SDS011;59128;44.642;21.188;2023-05-10T10:16:29;5.25;;;2.97;;
60665;SDS011;59128;44.642;21.188;2023-05-10T10:18:55;2.78;;;2.40;;
60665;SDS011;59128;44.642;21.188;2023-05-10T10:21:22;3.67;;;3.10;;
60665;SDS011;59128;44.642;21.188;2023-05-10T10:23:48;4.25;;;3.13;;
60665;SDS011;59128;44.642;21.188;2023-05-10T10:26:14;3.00;;;2.65;;
60665;SDS011;59128;44.642;21.188;2023-05-10T10:28:59;4.55;;;2.70;;
60665;SDS011;59128;44.642;21.188;2023-05-10T10:31:32;5.53;;;2.65;;
60665;SDS011;59128;44.642;21.188;2023-05-10T10:34:04;4.10;;;3.00;;
60665;SDS011;59128;44.642;21.188;2023-05-10T10:36:32;3.35;;;2.70;;
60665;SDS011;59128;44.642;21.188;2023-05-10T10:39:02;6.85;;;2.97;;
60665;SDS011;59128;44.642;21.188;2023-05-10T10:41:34;4.32;;;2.88;;
60665;SDS011;59128;44.642;21.188;2023-05-10T10:49:51;4.70;;;2.38;;
60665;SDS011;59128;44.642;21.188;2023-05-10T10:52:24;3.97;;;2.60;;
60665;SDS011;59128;44.642;21.188;2023-05-10T10:54:58;5.22;;;2.75;;
60665;SDS011;59128;44.642;21.188;2023-05-10T10:57:30;6.07;;;3.05;;
60665;SDS011;59128;44.642;21.188;2023-05-10T11:05:25;6.95;;;3.45;;
60665;SDS011;59128;44.642;21.188;2023-05-10T11:07:55;7.88;;;4.30;;
60665;SDS011;59128;44.642;21.188;2023-05-10T11:10:22;5.60;;;3.75;;
60665;SDS011;59128;44.642;21.188;2023-05-10T11:13:07;4.78;;;3.10;;
60665;SDS011;59128;44.642;21.188;2023-05-10T11:15:38;3.50;;;2.70;;
60665;SDS011;59128;44.642;21.188;2023-05-10T11:18:17;4.43;;;2.65;;
60665;SDS011;59128;44.642;21.188;2023-05-10T11:20:52;4.13;;;2.10;;
60665;SDS011;59128;44.642;21.188;2023-05-10T11:23:21;6.85;;;2.50;;
60665;SDS011;59128;44.642;21.188;2023-05-10T11:25:48;4.70;;;3.15;;
60665;SDS011;59128;44.642;21.188;2023-05-10T11:28:16;8.13;;;3.28;;
60665;SDS011;59128;44.642;21.188;2023-05-10T11:30:43;4.28;;;3.22;;
60665;SDS011;59128;44.642;21.188;2023-05-10T11:33:14;6.93;;;4.78;;
60665;SDS011;59128;44.642;21.188;2023-05-10T11:35:41;7.90;;;5.32;;
60665;SDS011;59128;44.642;21.188;2023-05-10T11:38:10;5.38;;;3.30;;
60665;SDS011;59128;44.642;21.188;2023-05-10T11:40:37;19.02;;;4.57;;
60665;SDS011;59128;44.642;21.188;2023-05-10T11:43:04;10.75;;;4.15;;
60665;SDS011;59128;44.642;21.188;2023-05-10T11:45:34;6.20;;;3.30;;
60665;SDS011;59128;44.642;21.188;2023-05-10T11:48:00;6.15;;;3.58;;
60665;SDS011;59128;44.642;21.188;2023-05-10T11:50:27;3.60;;;2.10;;
60665;SDS011;59128;44.642;21.188;2023-05-10T11:52:54;4.57;;;2.35;;
60665;SDS011;59128;44.642;21.188;2023-05-10T11:55:20;7.05;;;4.03;;
60665;SDS011;59128;44.642;21.188;2023-05-10T11:57:46;4.60;;;2.42;;
60665;SDS011;59128;44.642;21.188;2023-05-10T12:00:13;4.70;;;3.28;;
60665;SDS011;59128;44.642;21.188;2023-05-10T12:02:39;12.10;;;5.72;;
60665;SDS011;59128;44.642;21.188;2023-05-10T12:05:05;10.10;;;4.75;;
60665;SDS011;59128;44.642;21.188;2023-05-10T12:07:32;7.30;;;3.85;;
60665;SDS011;59128;44.642;21.188;2023-05-10T12:10:11;5.25;;;2.92;;
60665;SDS011;59128;44.642;21.188;2023-05-10T12:12:45;9.55;;;4.65;;
60665;SDS011;59128;44.642;21.188;2023-05-10T12:17:45;4.88;;;2.85;;
60665;SDS011;59128;44.642;21.188;2023-05-10T12:20:18;5.45;;;2.13;;
60665;SDS011;59128;44.642;21.188;2023-05-10T12:22:55;7.97;;;3.43;;
60665;SDS011;59128;44.642;21.188;2023-05-10T12:25:22;7.05;;;5.57;;
60665;SDS011;59128;44.642;21.188;2023-05-10T12:27:52;6.18;;;3.88;;
60665;SDS011;59128;44.642;21.188;2023-05-10T12:30:19;4.30;;;2.78;;
60665;SDS011;59128;44.642;21.188;2023-05-10T12:32:45;4.07;;;3.65;;
60665;SDS011;59128;44.642;21.188;2023-05-10T12:35:11;4.35;;;2.95;;
60665;SDS011;59128;44.642;21.188;2023-05-10T12:37:37;5.05;;;2.38;;
60665;SDS011;59128;44.642;21.188;2023-05-10T12:40:07;4.68;;;4.10;;
60665;SDS011;59128;44.642;21.188;2023-05-10T12:42:33;5.38;;;4.05;;
60665;SDS011;59128;44.642;21.188;2023-05-10T12:45:00;7.03;;;3.20;;
60665;SDS011;59128;44.642;21.188;2023-05-10T12:47:27;7.63;;;5.43;;
60665;SDS011;59128;44.642;21.188;2023-05-10T12:49:53;4.50;;;2.20;;
60665;SDS011;59128;44.642;21.188;2023-05-10T12:52:20;9.15;;;6.88;;
60665;SDS011;59128;44.642;21.188;2023-05-10T12:54:46;3.78;;;3.20;;
60665;SDS011;59128;44.642;21.188;2023-05-10T12:57:12;4.10;;;2.15;;
60665;SDS011;59128;44.642;21.188;2023-05-10T12:59:39;4.32;;;2.88;;
60665;SDS011;59128;44.642;21.188;2023-05-10T13:02:05;5.68;;;3.55;;
60665;SDS011;59128;44.642;21.188;2023-05-10T13:04:32;6.03;;;4.35;;
60665;SDS011;59128;44.642;21.188;2023-05-10T13:06:58;6.45;;;4.43;;
60665;SDS011;59128;44.642;21.188;2023-05-10T13:09:24;5.70;;;3.03;;
60665;SDS011;59128;44.642;21.188;2023-05-10T13:11:51;2.58;;;1.73;;
60665;SDS011;59128;44.642;21.188;2023-05-10T13:14:19;6.28;;;2.38;;
60665;SDS011;59128;44.642;21.188;2023-05-10T13:16:48;7.68;;;2.20;;
60665;SDS011;59128;44.642;21.188;2023-05-10T13:19:14;3.10;;;2.40;;
60665;SDS011;59128;44.642;21.188;2023-05-10T13:21:40;3.53;;;2.00;;
60665;SDS011;59128;44.642;21.188;2023-05-10T13:24:06;2.67;;;2.22;;
60665;SDS011;59128;44.642;21.188;2023-05-10T13:26:32;3.17;;;1.90;;
60665;SDS011;59128;44.642;21.188;2023-05-10T13:28:59;5.40;;;2.17;;
60665;SDS011;59128;44.642;21.188;2023-05-10T13:31:25;2.83;;;1.90;;
60665;SDS011;59128;44.642;21.188;2023-05-10T13:33:52;3.83;;;2.33;;
60665;SDS011;59128;44.642;21.188;2023-05-10T13:36:21;7.57;;;3.28;;
60665;SDS011;59128;44.642;21.188;2023-05-10T13:38:48;3.80;;;2.38;;
60665;SDS011;59128;44.642;21.188;2023-05-10T13:41:15;5.13;;;2.67;;
60665;SDS011;59128;44.642;21.188;2023-05-10T13:43:41;6.15;;;2.75;;
60665;SDS011;59128;44.642;21.188;2023-05-10T13:46:07;4.80;;;3.42;;
60665;SDS011;59128;44.642;21.188;2023-05-10T13:48:33;5.20;;;2.50;;
60665;SDS011;59128;44.642;21.188;2023-05-10T13:50:59;5.05;;;2.90;;
60665;SDS011;59128;44.642;21.188;2023-05-10T13:53:25;5.57;;;2.60;;
60665;SDS011;59128;44.642;21.188;2023-05-10T13:55:51;4.20;;;3.10;;
60665;SDS011;59128;44.642;21.188;2023-05-10T13:58:17;5.63;;;2.47;;
60665;SDS011;59128;44.642;21.188;2023-05-10T14:00:44;6.20;;;3.65;;
60665;SDS011;59128;44.642;21.188;2023-05-10T14:03:10;2.35;;;1.77;;
60665;SDS011;59128;44.642;21.188;2023-05-10T14:05:36;1.98;;;1.77;;
60665;SDS011;59128;44.642;21.188;2023-05-10T14:08:02;5.97;;;3.00;;
60665;SDS011;59128;44.642;21.188;2023-05-10T14:10:29;4.00;;;2.05;;
60665;SDS011;59128;44.642;21.188;2023-05-10T14:12:55;5.03;;;3.40;;
60665;SDS011;59128;44.642;21.188;2023-05-10T14:15:21;7.07;;;2.17;;
60665;SDS011;59128;44.642;21.188;2023-05-10T14:17:47;6.50;;;2.58;;
60665;SDS011;59128;44.642;21.188;2023-05-10T14:20:13;4.65;;;2.08;;
60665;SDS011;59128;44.642;21.188;2023-05-10T14:22:40;3.55;;;2.38;;
60665;SDS011;59128;44.642;21.188;2023-05-10T14:25:06;3.42;;;2.30;;
60665;SDS011;59128;44.642;21.188;2023-05-10T14:27:32;3.20;;;2.15;;
60665;SDS011;59128;44.642;21.188;2023-05-10T14:29:58;6.18;;;2.03;;
60665;SDS011;59128;44.642;21.188;2023-05-10T14:32:24;11.85;;;4.10;;
60665;SDS011;59128;44.642;21.188;2023-05-10T14:34:51;7.32;;;3.75;;
60665;SDS011;59128;44.642;21.188;2023-05-10T14:37:17;4.38;;;2.20;;
60665;SDS011;59128;44.642;21.188;2023-05-10T14:39:43;4.40;;;2.28;;
60665;SDS011;59128;44.642;21.188;2023-05-10T14:42:10;5.95;;;2.35;;
60665;SDS011;59128;44.642;21.188;2023-05-10T14:44:36;3.72;;;2.28;;
60665;SDS011;59128;44.642;21.188;2023-05-10T14:47:02;4.65;;;2.90;;
60665;SDS011;59128;44.642;21.188;2023-05-10T14:49:28;3.58;;;2.65;;
60665;SDS011;59128;44.642;21.188;2023-05-10T14:51:54;3.03;;;2.15;;
60665;SDS011;59128;44.642;21.188;2023-05-10T14:54:20;7.85;;;4.25;;
60665;SDS011;59128;44.642;21.188;2023-05-10T14:56:46;5.22;;;3.08;;
60665;SDS011;59128;44.642;21.188;2023-05-10T14:59:14;7.43;;;4.53;;
60665;SDS011;59128;44.642;21.188;2023-05-10T15:01:40;5.55;;;3.80;;
60665;SDS011;59128;44.642;21.188;2023-05-10T15:04:07;4.72;;;3.75;;